createdAt,value
2018-01-01T00:00:44.040Z,78.61
2018-01-01T00:01:44.049Z,78.61
2018-01-01T00:02:44.031Z,79.14
2018-01-01T00:03:44.024Z,78.99
2018-01-01T00:04:44.033Z,78.77
2018-01-01T00:05:44.032Z,78.96
2018-01-01T00:06:44.021Z,79.05
2018-01-01T00:07:44.029Z,79.05
2018-01-01T00:08:44.017Z,78.99
2018-01-01T00:09:44.021Z,78.77
2018-01-01T00:10:44.028Z,78.96
2018-01-01T00:11:44.012Z,79.33
2018-01-01T00:12:44.028Z,79.33
2018-01-01T00:13:44.008Z,78.96
2018-01-01T00:14:44.006Z,79.62
2018-01-01T00:15:44.009Z,79.33
2018-01-01T00:16:44.013Z,79.14
2018-01-01T00:17:44.010Z,79.43
2018-01-01T00:18:43.999Z,79.14
2018-01-01T00:19:44.002Z,79.43
2018-01-01T00:20:43.996Z,79.24
2018-01-01T00:21:43.991Z,79.14
2018-01-01T00:22:43.991Z,78.86
2018-01-01T00:23:43.989Z,79.91
2018-01-01T00:24:43.987Z,79.62
2018-01-01T00:25:43.989Z,80.00
2018-01-01T00:26:43.991Z,79.52
2018-01-01T00:27:43.983Z,80.00
2018-01-01T00:28:43.980Z,79.72
2018-01-01T00:29:43.979Z,80.00
2018-01-01T00:30:43.993Z,80.76
2018-01-01T00:31:43.978Z,80.38
2018-01-01T00:32:43.973Z,80.95
2018-01-01T00:33:43.971Z,80.57
2018-01-01T00:34:43.968Z,80.57
2018-01-01T00:35:43.969Z,80.66
2018-01-01T00:36:43.966Z,80.86
2018-01-01T00:37:43.960Z,80.66
2018-01-01T00:38:43.960Z,80.66
2018-01-01T00:39:43.959Z,80.76
2018-01-01T00:40:43.958Z,80.95
2018-01-01T00:41:43.955Z,81.24
2018-01-01T00:42:43.966Z,81.62
2018-01-01T00:43:43.950Z,81.43
2018-01-01T00:44:43.949Z,81.33
2018-01-01T00:45:43.945Z,82.00
2018-01-01T00:46:43.946Z,81.71
2018-01-01T00:47:43.946Z,81.33
2018-01-01T00:48:43.946Z,81.43
2018-01-01T00:49:43.946Z,81.62
2018-01-01T00:50:43.937Z,81.71
2018-01-01T00:51:43.938Z,81.43
2018-01-01T00:52:43.932Z,81.62
2018-01-01T00:53:43.929Z,81.62
2018-01-01T00:54:43.936Z,82.28
2018-01-01T00:55:43.927Z,81.71
2018-01-01T00:56:43.923Z,81.71
2018-01-01T00:57:43.940Z,81.62
2018-01-01T00:58:43.919Z,81.43
2018-01-01T00:59:43.919Z,81.43
2018-01-01T01:00:43.935Z,81.33
2018-01-01T01:01:43.914Z,81.71
2018-01-01T01:02:43.913Z,81.81
2018-01-01T01:03:43.911Z,82.00
2018-01-01T01:04:43.908Z,81.71
2018-01-01T01:05:43.905Z,81.81
2018-01-01T01:06:43.904Z,82.57
2018-01-01T01:07:43.901Z,82.38
2018-01-01T01:08:43.899Z,82.48
2018-01-01T01:09:43.896Z,82.67
2018-01-01T01:10:43.895Z,82.76
2018-01-01T01:11:43.905Z,82.95
2018-01-01T01:12:43.896Z,82.71
2018-01-01T01:13:43.889Z,82.53
2018-01-01T01:14:43.885Z,83.19
2018-01-01T01:15:43.884Z,82.76
2018-01-01T01:16:43.884Z,82.76
2018-01-01T01:17:43.882Z,82.67
2018-01-01T01:18:43.878Z,82.95
2018-01-01T01:19:43.875Z,82.48
2018-01-01T01:20:43.873Z,82.57
2018-01-01T01:21:43.890Z,82.43
2018-01-01T01:22:43.871Z,82.67
2018-01-01T01:23:43.879Z,83.14
2018-01-01T01:24:43.873Z,82.91
2018-01-01T01:25:43.864Z,83.00
2018-01-01T01:26:43.861Z,82.91
2018-01-01T01:27:43.865Z,83.33
2018-01-01T01:28:43.858Z,83.23
2018-01-01T01:29:43.856Z,82.81
2018-01-01T01:30:43.853Z,83.00
2018-01-01T01:31:43.852Z,83.67
2018-01-01T01:32:43.849Z,83.58
2018-01-01T01:33:43.846Z,83.29
2018-01-01T01:34:43.844Z,83.58
2018-01-01T01:35:43.849Z,83.58
2018-01-01T01:36:43.843Z,83.62
2018-01-01T01:37:43.835Z,83.19
2018-01-01T01:38:43.834Z,83.29
2018-01-01T01:39:43.836Z,83.67
2018-01-01T01:40:43.832Z,83.52
2018-01-01T01:41:43.830Z,83.81
2018-01-01T01:42:43.827Z,84.05
2018-01-01T01:43:43.824Z,83.48
2018-01-01T01:44:43.825Z,83.33
2018-01-01T01:45:43.819Z,83.42
2018-01-01T01:46:43.818Z,83.90
2018-01-01T01:47:43.829Z,84.14
2018-01-01T01:48:43.814Z,84.33
2018-01-01T01:49:43.820Z,84.43
2018-01-01T01:50:43.809Z,84.85
2018-01-01T01:51:43.808Z,85.19
2018-01-01T01:52:43.806Z,86.43
2018-01-01T01:53:43.805Z,87.19
2018-01-01T01:54:43.801Z,87.66
2018-01-01T01:55:43.801Z,87.57
2018-01-01T01:56:43.801Z,87.57
2018-01-01T01:57:43.799Z,88.13
2018-01-01T01:58:43.792Z,88.13
2018-01-01T01:59:43.793Z,87.95
2018-01-01T02:00:43.791Z,87.76
2018-01-01T02:01:43.790Z,87.28
2018-01-01T02:02:43.784Z,87.57
2018-01-01T02:03:43.783Z,87.47
2018-01-01T02:04:43.788Z,87.19
2018-01-01T02:05:43.781Z,86.99
2018-01-01T02:06:43.776Z,86.90
2018-01-01T02:07:43.774Z,87.09
2018-01-01T02:08:43.779Z,87.09
2018-01-01T02:09:43.769Z,86.99
2018-01-01T02:10:43.766Z,85.76
2018-01-01T02:11:43.764Z,85.66
2018-01-01T02:12:43.764Z,85.47
2018-01-01T02:13:43.762Z,85.28
2018-01-01T02:14:43.758Z,85.00
2018-01-01T02:15:43.804Z,84.81
2018-01-01T02:16:43.753Z,84.91
2018-01-01T02:17:43.754Z,85.00
2018-01-01T02:18:43.752Z,84.91
2018-01-01T02:19:43.747Z,84.81
2018-01-01T02:20:43.746Z,84.33
2018-01-01T02:21:43.743Z,84.05
2018-01-01T02:22:43.740Z,84.24
2018-01-01T02:23:43.738Z,83.95
2018-01-01T02:24:43.738Z,84.62
2018-01-01T02:25:43.733Z,84.14
2018-01-01T02:26:43.732Z,84.24
2018-01-01T02:27:43.731Z,84.24
2018-01-01T02:28:43.728Z,83.39
2018-01-01T02:29:43.725Z,83.76
2018-01-01T02:30:43.729Z,84.14
2018-01-01T02:31:43.724Z,84.14
2018-01-01T02:32:43.719Z,84.33
2018-01-01T02:33:43.717Z,84.14
2018-01-01T02:34:43.716Z,83.58
2018-01-01T02:35:43.710Z,83.95
2018-01-01T02:36:43.709Z,83.95
2018-01-01T02:37:43.707Z,83.95
2018-01-01T02:38:43.730Z,83.29
2018-01-01T02:39:43.701Z,83.10
2018-01-01T02:40:43.701Z,82.91
2018-01-01T02:41:43.707Z,83.10
2018-01-01T02:42:43.713Z,83.00
2018-01-01T02:43:43.693Z,83.19
2018-01-01T02:44:43.691Z,83.76
2018-01-01T02:45:43.702Z,83.19
2018-01-01T02:46:43.687Z,82.81
2018-01-01T02:47:43.686Z,82.81
2018-01-01T02:48:43.685Z,83.00
2018-01-01T02:49:43.682Z,82.81
2018-01-01T02:50:43.692Z,83.10
2018-01-01T02:51:43.675Z,82.81
2018-01-01T02:52:43.677Z,82.91
2018-01-01T02:53:43.671Z,83.00
2018-01-01T02:54:43.670Z,83.00
2018-01-01T02:55:45.628Z,83.10
2018-01-01T02:56:43.665Z,83.19
2018-01-01T02:57:43.663Z,83.29
2018-01-01T02:58:43.663Z,83.29
2018-01-01T02:59:43.660Z,83.76
2018-01-01T03:00:43.663Z,83.39
2018-01-01T03:01:43.652Z,82.62
2018-01-01T03:02:43.650Z,83.39
2018-01-01T03:03:43.649Z,82.91
2018-01-01T03:04:43.649Z,82.53
2018-01-01T03:05:43.643Z,82.53
2018-01-01T03:06:43.644Z,81.77
2018-01-01T03:07:43.640Z,81.67
2018-01-01T03:08:43.638Z,81.20
2018-01-01T03:09:43.650Z,81.38
2018-01-01T03:10:43.634Z,81.10
2018-01-01T03:11:43.634Z,80.82
2018-01-01T03:12:43.630Z,80.44
2018-01-01T03:13:43.626Z,81.20
2018-01-01T03:14:43.623Z,81.20
2018-01-01T03:15:43.626Z,80.24
2018-01-01T03:16:43.619Z,80.15
2018-01-01T03:17:43.626Z,79.86
2018-01-01T03:18:43.622Z,79.77
2018-01-01T03:19:43.612Z,79.68
2018-01-01T03:20:43.616Z,80.44
2018-01-01T03:21:43.613Z,79.96
2018-01-01T03:22:43.609Z,79.68
2018-01-01T03:23:43.609Z,80.44
2018-01-01T03:24:43.601Z,80.72
2018-01-01T03:25:43.598Z,80.44
2018-01-01T03:26:43.598Z,80.40
2018-01-01T03:27:43.596Z,80.44
2018-01-01T03:28:43.593Z,80.44
2018-01-01T03:29:43.593Z,79.96
2018-01-01T03:30:43.587Z,79.83
2018-01-01T03:31:43.583Z,79.83
2018-01-01T03:32:43.583Z,79.63
2018-01-01T03:33:43.580Z,79.54
2018-01-01T03:34:43.577Z,79.63
2018-01-01T03:35:43.575Z,79.44
2018-01-01T03:36:43.577Z,79.16
2018-01-01T03:37:43.577Z,79.25
2018-01-01T03:38:43.566Z,79.16
2018-01-01T03:39:43.567Z,78.97
2018-01-01T03:40:43.564Z,79.06
2018-01-01T03:41:43.562Z,79.11
2018-01-01T03:42:43.560Z,79.25
2018-01-01T03:43:43.556Z,78.88
2018-01-01T03:44:43.562Z,78.97
2018-01-01T03:45:43.549Z,78.25
2018-01-01T03:46:43.549Z,77.45
2018-01-01T03:47:43.545Z,77.45
2018-01-01T03:48:43.546Z,77.45
2018-01-01T03:49:43.539Z,77.36
2018-01-01T03:50:43.539Z,77.20
2018-01-01T03:51:43.543Z,76.59
2018-01-01T03:52:43.535Z,76.82
2018-01-01T03:53:43.531Z,77.26
2018-01-01T03:54:43.529Z,77.55
2018-01-01T03:55:43.527Z,77.73
2018-01-01T03:56:43.524Z,77.36
2018-01-01T03:57:43.531Z,77.17
2018-01-01T03:58:43.517Z,77.55
2018-01-01T03:59:43.520Z,77.83
2018-01-01T04:00:43.515Z,77.36
2018-01-01T04:01:43.517Z,77.64
2018-01-01T04:02:43.510Z,77.36
2018-01-01T04:03:43.506Z,77.45
2018-01-01T04:04:43.506Z,76.50
2018-01-01T04:05:43.501Z,76.97
2018-01-01T04:06:43.508Z,77.17
2018-01-01T04:07:43.498Z,76.78
2018-01-01T04:08:43.495Z,77.17
2018-01-01T04:09:43.494Z,76.88
2018-01-01T04:10:43.489Z,76.40
2018-01-01T04:11:43.486Z,76.40
2018-01-01T04:12:43.489Z,76.40
2018-01-01T04:13:43.482Z,76.12
2018-01-01T04:14:43.479Z,76.50
2018-01-01T04:15:43.477Z,76.59
2018-01-01T04:16:43.474Z,76.21
2018-01-01T04:17:43.471Z,76.03
2018-01-01T04:18:43.469Z,75.93
2018-01-01T04:19:43.468Z,75.74
2018-01-01T04:20:43.465Z,75.55
2018-01-01T04:21:43.461Z,76.03
2018-01-01T04:22:43.456Z,75.93
2018-01-01T04:23:43.459Z,75.45
2018-01-01T04:24:43.458Z,75.17
2018-01-01T04:25:43.475Z,75.45
2018-01-01T04:26:43.447Z,75.55
2018-01-01T04:27:43.452Z,75.64
2018-01-01T04:28:43.444Z,75.55
2018-01-01T04:29:43.441Z,75.36
2018-01-01T04:30:43.440Z,75.17
2018-01-01T04:31:43.439Z,75.64
2018-01-01T04:32:43.434Z,75.84
2018-01-01T04:33:43.430Z,75.93
2018-01-01T04:34:43.427Z,76.03
2018-01-01T04:35:43.426Z,75.64
2018-01-01T04:36:43.430Z,75.74
2018-01-01T04:37:43.419Z,76.21
2018-01-01T04:38:43.413Z,75.84
2018-01-01T04:39:43.413Z,75.74
2018-01-01T04:40:43.412Z,75.84
2018-01-01T04:41:43.407Z,75.93
2018-01-01T04:42:43.408Z,75.74
2018-01-01T04:43:43.404Z,75.36
2018-01-01T04:44:43.405Z,75.36
2018-01-01T04:45:43.397Z,75.17
2018-01-01T04:46:43.395Z,75.26
2018-01-01T04:47:43.392Z,75.84
2018-01-01T04:48:43.390Z,75.93
2018-01-01T04:49:43.389Z,76.21
2018-01-01T04:50:43.383Z,75.26
2018-01-01T04:51:43.383Z,75.07
2018-01-01T04:52:43.378Z,74.51
2018-01-01T04:53:43.375Z,74.69
2018-01-01T04:54:43.375Z,75.36
2018-01-01T04:55:43.370Z,75.74
2018-01-01T04:56:43.369Z,75.89
2018-01-01T04:57:43.379Z,76.56
2018-01-01T04:58:43.369Z,76.27
2018-01-01T04:59:43.362Z,76.27
2018-01-01T05:00:43.357Z,75.99
2018-01-01T05:01:43.383Z,76.37
2018-01-01T05:02:43.351Z,76.37
2018-01-01T05:03:43.355Z,76.27
2018-01-01T05:04:43.348Z,76.08
2018-01-01T05:05:43.344Z,75.99
2018-01-01T05:06:43.340Z,75.89
2018-01-01T05:07:43.337Z,75.42
2018-01-01T05:08:43.333Z,75.60
2018-01-01T05:09:43.331Z,75.60
2018-01-01T05:10:43.331Z,75.04
2018-01-01T05:11:43.326Z,75.04
2018-01-01T05:12:43.324Z,75.13
2018-01-01T05:13:43.325Z,75.42
2018-01-01T05:14:43.318Z,75.42
2018-01-01T05:15:43.323Z,75.42
2018-01-01T05:16:43.312Z,75.13
2018-01-01T05:17:43.311Z,75.32
2018-01-01T05:18:43.306Z,75.42
2018-01-01T05:19:43.304Z,74.94
2018-01-01T05:20:43.304Z,75.79
2018-01-01T05:21:43.296Z,75.60
2018-01-01T05:22:43.302Z,75.60
2018-01-01T05:23:43.290Z,75.42
2018-01-01T05:24:43.290Z,75.32
2018-01-01T05:25:43.364Z,74.94
2018-01-01T05:26:43.284Z,74.66
2018-01-01T05:27:43.280Z,74.75
2018-01-01T05:28:43.281Z,75.13
2018-01-01T05:29:43.276Z,74.47
2018-01-01T05:30:43.276Z,74.37
2018-01-01T05:31:43.268Z,74.27
2018-01-01T05:32:43.265Z,74.27
2018-01-01T05:33:43.266Z,74.18
2018-01-01T05:34:43.265Z,74.27
2018-01-01T05:35:43.270Z,74.37
2018-01-01T05:36:43.259Z,74.56
2018-01-01T05:37:43.251Z,74.08
2018-01-01T05:38:43.248Z,73.90
2018-01-01T05:39:43.265Z,74.56
2018-01-01T05:40:43.254Z,74.66
2018-01-01T05:41:43.239Z,74.47
2018-01-01T05:42:43.234Z,75.13
2018-01-01T05:43:43.235Z,76.27
2018-01-01T05:44:43.230Z,77.12
2018-01-01T05:45:43.246Z,77.03
2018-01-01T05:46:43.228Z,76.93
2018-01-01T05:47:43.223Z,78.55
2018-01-01T05:48:43.263Z,78.74
2018-01-01T05:49:43.216Z,79.03
2018-01-01T05:50:43.249Z,79.60
2018-01-01T05:51:43.212Z,80.22
2018-01-01T05:52:43.227Z,80.32
2018-01-01T05:53:43.205Z,81.84
2018-01-01T05:54:43.201Z,82.40
2018-01-01T05:55:43.198Z,84.11
2018-01-01T05:56:43.196Z,84.11
2018-01-01T05:57:43.204Z,85.44
2018-01-01T05:58:43.188Z,86.01
2018-01-01T05:59:43.186Z,85.63
2018-01-01T06:00:43.186Z,85.44
2018-01-01T06:01:43.184Z,85.63
2018-01-01T06:02:43.176Z,86.35
2018-01-01T06:03:43.174Z,86.54
2018-01-01T06:04:43.172Z,87.30
2018-01-01T06:05:43.177Z,87.49
2018-01-01T06:06:43.165Z,88.43
2018-01-01T06:07:43.161Z,88.91
2018-01-01T06:08:43.155Z,89.43
2018-01-01T06:09:43.154Z,90.67
2018-01-01T06:10:43.149Z,90.19
2018-01-01T06:11:43.162Z,91.24
2018-01-01T06:12:43.145Z,92.04
2018-01-01T06:13:43.140Z,91.76
2018-01-01T06:14:43.137Z,92.23
2018-01-01T06:15:43.143Z,91.76
2018-01-01T06:16:43.150Z,92.33
2018-01-01T06:17:43.126Z,90.81
2018-01-01T06:18:43.122Z,90.53
2018-01-01T06:19:43.118Z,91.28
2018-01-01T06:20:43.114Z,91.95
2018-01-01T06:21:43.111Z,91.95
2018-01-01T06:22:43.135Z,92.52
2018-01-01T06:23:43.101Z,91.95
2018-01-01T06:24:43.099Z,91.28
2018-01-01T06:25:43.094Z,91.85
2018-01-01T06:26:43.090Z,91.28
2018-01-01T06:27:43.087Z,91.38
2018-01-01T06:28:43.095Z,90.81
2018-01-01T06:29:43.077Z,91.09
2018-01-01T06:30:43.073Z,91.85
2018-01-01T06:31:43.070Z,92.04
2018-01-01T06:32:43.065Z,92.80
2018-01-01T06:33:43.065Z,92.90
2018-01-01T06:34:43.066Z,92.52
2018-01-01T06:35:43.059Z,92.42
2018-01-01T06:36:43.049Z,92.61
2018-01-01T06:37:43.043Z,91.95
2018-01-01T06:38:43.039Z,92.71
2018-01-01T06:39:43.035Z,92.52
2018-01-01T06:40:43.039Z,92.90
2018-01-01T06:41:43.027Z,92.61
2018-01-01T06:42:43.022Z,92.42
2018-01-01T06:43:43.030Z,92.80
2018-01-01T06:44:43.067Z,93.37
2018-01-01T06:45:43.009Z,93.65
2018-01-01T06:46:43.004Z,92.90
2018-01-01T06:47:43.001Z,92.14
2018-01-01T06:48:42.996Z,92.33
2018-01-01T06:49:42.990Z,91.76
2018-01-01T06:50:42.985Z,91.95
2018-01-01T06:51:42.983Z,90.81
2018-01-01T06:52:42.979Z,90.72
2018-01-01T06:53:42.971Z,91.66
2018-01-01T06:54:42.969Z,91.66
2018-01-01T06:55:42.964Z,91.76
2018-01-01T06:56:42.991Z,91.76
2018-01-01T06:57:42.954Z,91.19
2018-01-01T06:58:42.949Z,91.85
2018-01-01T06:59:42.944Z,92.42
2018-01-01T07:00:42.938Z,91.85
2018-01-01T07:01:42.935Z,92.33
2018-01-01T07:02:42.957Z,91.85
2018-01-01T07:03:42.925Z,91.85
2018-01-01T07:04:42.923Z,92.42
2018-01-01T07:05:42.916Z,92.80
2018-01-01T07:06:42.914Z,92.90
2018-01-01T07:07:42.914Z,93.08
2018-01-01T07:08:42.904Z,92.61
2018-01-01T07:09:42.896Z,92.33
2018-01-01T07:10:42.893Z,92.90
2018-01-01T07:11:42.910Z,92.90
2018-01-01T07:12:42.884Z,92.33
2018-01-01T07:13:42.880Z,92.71
2018-01-01T07:14:42.881Z,92.71
2018-01-01T07:15:42.871Z,92.90
2018-01-01T07:16:42.882Z,91.85
2018-01-01T07:17:42.883Z,92.23
2018-01-01T07:18:42.858Z,92.61
2018-01-01T07:19:42.857Z,92.52
2018-01-01T07:20:42.899Z,92.14
2018-01-01T07:21:42.843Z,91.95
2018-01-01T07:22:42.860Z,92.33
2018-01-01T07:23:42.938Z,92.71
2018-01-01T07:24:42.835Z,92.33
2018-01-01T07:25:43.340Z,92.04
2018-01-01T07:26:42.818Z,91.76
2018-01-01T07:27:42.829Z,92.33
2018-01-01T07:28:42.810Z,92.04
2018-01-01T07:29:42.916Z,92.14
2018-01-01T07:30:42.802Z,92.04
2018-01-01T07:31:42.908Z,92.52
2018-01-01T07:32:42.794Z,92.04
2018-01-01T07:33:42.788Z,92.80
2018-01-01T07:34:42.781Z,92.90
2018-01-01T07:35:42.860Z,92.71
2018-01-01T07:36:42.777Z,92.71
2018-01-01T07:37:42.769Z,93.27
2018-01-01T07:38:42.874Z,93.08
2018-01-01T07:39:42.791Z,92.71
2018-01-01T07:40:42.947Z,92.14
2018-01-01T07:41:42.753Z,92.33
2018-01-01T07:42:42.806Z,91.76
2018-01-01T07:43:42.743Z,91.28
2018-01-01T07:44:42.748Z,91.38
2018-01-01T07:45:42.733Z,92.04
2018-01-01T07:46:42.729Z,92.42
2018-01-01T07:47:42.729Z,91.76
2018-01-01T07:48:42.802Z,91.76
2018-01-01T07:49:42.717Z,91.95
2018-01-01T07:50:42.710Z,92.04
2018-01-01T07:51:42.710Z,92.14
2018-01-01T07:52:42.961Z,91.66
2018-01-01T07:53:42.696Z,91.47
2018-01-01T07:54:42.697Z,91.85
2018-01-01T07:55:42.689Z,91.76
2018-01-01T07:56:42.698Z,91.85
2018-01-01T07:57:42.685Z,91.28
2018-01-01T07:58:42.680Z,90.91
2018-01-01T07:59:42.669Z,90.57
2018-01-01T08:00:42.667Z,90.67
2018-01-01T08:01:42.662Z,90.95
2018-01-01T08:02:42.657Z,91.52
2018-01-01T08:03:42.677Z,91.52
2018-01-01T08:04:42.651Z,90.95
2018-01-01T08:05:42.643Z,90.86
2018-01-01T08:06:42.645Z,90.86
2018-01-01T08:07:42.633Z,91.05
2018-01-01T08:08:42.637Z,91.05
2018-01-01T08:09:42.626Z,90.48
2018-01-01T08:10:42.688Z,90.95
2018-01-01T08:11:42.615Z,91.24
2018-01-01T08:12:42.621Z,90.76
2018-01-01T08:13:42.607Z,90.76
2018-01-01T08:14:42.602Z,91.05
2018-01-01T08:15:44.414Z,89.72
2018-01-01T08:16:42.603Z,89.43
2018-01-01T08:17:42.591Z,90.00
2018-01-01T08:18:42.606Z,89.81
2018-01-01T08:19:42.578Z,89.53
2018-01-01T08:20:42.578Z,89.53
2018-01-01T08:21:42.573Z,90.10
2018-01-01T08:22:42.568Z,90.00
2018-01-01T08:23:42.564Z,89.81
2018-01-01T08:24:42.559Z,89.72
2018-01-01T08:25:42.556Z,89.72
2018-01-01T08:26:42.551Z,90.00
2018-01-01T08:27:42.547Z,89.91
2018-01-01T08:28:42.553Z,89.72
2018-01-01T08:29:42.536Z,89.25
2018-01-01T08:30:42.535Z,88.77
2018-01-01T08:31:42.529Z,89.34
2018-01-01T08:32:42.526Z,89.34
2018-01-01T08:33:42.519Z,90.38
2018-01-01T08:34:42.515Z,89.81
2018-01-01T08:35:42.512Z,89.15
2018-01-01T08:36:42.520Z,89.62
2018-01-01T08:37:42.506Z,89.91
2018-01-01T08:38:42.497Z,89.72
2018-01-01T08:39:42.520Z,90.10
2018-01-01T08:40:42.493Z,90.29
2018-01-01T08:41:42.486Z,90.19
2018-01-01T08:42:42.484Z,90.29
2018-01-01T08:43:42.486Z,90.95
2018-01-01T08:44:42.479Z,90.19
2018-01-01T08:45:42.468Z,90.76
2018-01-01T08:46:42.464Z,90.57
2018-01-01T08:47:42.467Z,90.38
2018-01-01T08:48:42.461Z,90.29
2018-01-01T08:49:42.451Z,90.86
2018-01-01T08:50:42.499Z,90.86
2018-01-01T08:51:42.441Z,90.76
2018-01-01T08:52:42.465Z,90.76
2018-01-01T08:53:42.436Z,91.71
2018-01-01T08:54:42.479Z,92.18
2018-01-01T08:55:42.426Z,91.71
2018-01-01T08:56:42.425Z,91.85
2018-01-01T08:57:42.445Z,91.95
2018-01-01T08:58:42.411Z,91.33
2018-01-01T08:59:42.413Z,91.33
2018-01-01T09:00:42.404Z,91.33
2018-01-01T09:01:42.402Z,91.33
2018-01-01T09:02:42.398Z,91.80
2018-01-01T09:03:42.391Z,91.71
2018-01-01T09:04:42.387Z,91.71
2018-01-01T09:05:42.382Z,92.38
2018-01-01T09:06:42.388Z,91.80
2018-01-01T09:07:42.374Z,91.90
2018-01-01T09:08:42.397Z,91.80
2018-01-01T09:09:42.367Z,92.18
2018-01-01T09:10:42.380Z,90.52
2018-01-01T09:11:42.371Z,87.49
2018-01-01T09:12:42.356Z,87.87
2018-01-01T09:13:42.392Z,87.68
2018-01-01T09:14:42.348Z,87.39
2018-01-01T09:15:42.357Z,87.25
2018-01-01T09:16:42.342Z,87.49
2018-01-01T09:17:42.337Z,87.82
2018-01-01T09:18:42.333Z,87.35
2018-01-01T09:19:42.350Z,88.01
2018-01-01T09:20:42.332Z,88.10
2018-01-01T09:21:42.319Z,88.87
2018-01-01T09:22:42.322Z,88.77
2018-01-01T09:23:42.311Z,89.25
2018-01-01T09:24:42.361Z,88.87
2018-01-01T09:25:42.324Z,86.78
2018-01-01T09:26:42.302Z,86.30
2018-01-01T09:27:42.295Z,86.72
2018-01-01T09:28:42.311Z,85.59
2018-01-01T09:29:42.288Z,85.64
2018-01-01T09:30:42.284Z,85.82
2018-01-01T09:31:42.429Z,83.11
2018-01-01T09:32:42.345Z,82.74
2018-01-01T09:33:42.277Z,83.78
2018-01-01T09:34:42.271Z,84.74
2018-01-01T09:35:42.265Z,85.02
2018-01-01T09:36:42.294Z,84.55
2018-01-01T09:37:42.264Z,84.45
2018-01-01T09:38:42.350Z,83.94
2018-01-01T09:39:42.331Z,84.07
2018-01-01T09:40:42.264Z,84.83
2018-01-01T09:41:42.246Z,85.11
2018-01-01T09:42:42.339Z,85.68
2018-01-01T09:43:42.240Z,85.59
2018-01-01T09:44:42.238Z,85.11
2018-01-01T09:45:42.245Z,83.59
2018-01-01T09:46:42.229Z,84.41
2018-01-01T09:47:42.232Z,85.45
2018-01-01T09:48:42.227Z,84.88
2018-01-01T09:49:42.240Z,84.50
2018-01-01T09:50:42.234Z,84.03
2018-01-01T09:51:42.212Z,84.31
2018-01-01T09:52:42.214Z,84.31
2018-01-01T09:53:42.207Z,84.88
2018-01-01T09:54:42.202Z,85.93
2018-01-01T09:55:42.202Z,86.30
2018-01-01T09:56:42.202Z,85.55
2018-01-01T09:57:42.192Z,84.59
2018-01-01T09:58:42.196Z,83.84
2018-01-01T09:59:42.186Z,84.12
2018-01-01T10:00:42.195Z,84.03
2018-01-01T10:01:42.179Z,84.41
2018-01-01T10:02:42.172Z,83.84
2018-01-01T10:03:42.181Z,84.88
2018-01-01T10:04:42.182Z,84.31
2018-01-01T10:05:42.163Z,84.69
2018-01-01T10:06:42.184Z,84.41
2018-01-01T10:07:42.155Z,84.88
2018-01-01T10:08:42.215Z,85.55
2018-01-01T10:09:42.158Z,84.78
2018-01-01T10:10:42.142Z,84.12
2018-01-01T10:11:42.189Z,82.70
2018-01-01T10:12:42.137Z,82.84
2018-01-01T10:13:42.133Z,79.69
2018-01-01T10:14:42.161Z,76.50
2018-01-01T10:15:42.133Z,75.04
2018-01-01T10:16:42.134Z,77.56
2018-01-01T10:17:42.123Z,79.36
2018-01-01T10:18:42.122Z,80.37
2018-01-01T10:19:42.118Z,80.84
2018-01-01T10:20:42.117Z,82.27
2018-01-01T10:21:42.113Z,82.46
2018-01-01T10:22:42.111Z,84.07
2018-01-01T10:23:42.109Z,84.49
2018-01-01T10:24:42.109Z,82.35
2018-01-01T10:25:42.104Z,78.88
2018-01-01T10:26:42.104Z,77.83
2018-01-01T10:27:42.113Z,76.31
2018-01-01T10:28:42.104Z,77.98
2018-01-01T10:29:42.106Z,77.79
2018-01-01T10:30:42.105Z,77.31
2018-01-01T10:31:42.116Z,77.83
2018-01-01T10:32:42.106Z,76.69
2018-01-01T10:33:42.106Z,76.37
2018-01-01T10:34:42.109Z,77.60
2018-01-01T10:35:42.117Z,77.60
2018-01-01T10:36:42.118Z,77.51
2018-01-01T10:37:42.122Z,77.60
2018-01-01T10:38:42.130Z,77.84
2018-01-01T10:39:42.129Z,77.56
2018-01-01T10:40:42.136Z,78.13
2018-01-01T10:41:42.139Z,77.56
2018-01-01T10:42:42.149Z,77.56
2018-01-01T10:43:42.150Z,79.14
2018-01-01T10:44:42.156Z,79.14
2018-01-01T10:45:42.161Z,80.46
2018-01-01T10:46:42.173Z,80.27
2018-01-01T10:47:42.169Z,80.08
2018-01-01T10:48:42.170Z,80.65
2018-01-01T10:49:42.170Z,80.75
2018-01-01T10:50:42.175Z,81.32
2018-01-01T10:51:42.179Z,82.36
2018-01-01T10:52:42.206Z,82.65
2018-01-01T10:53:42.180Z,83.94
2018-01-01T10:54:42.178Z,84.31
2018-01-01T10:55:42.178Z,84.78
2018-01-01T10:56:42.178Z,84.41
2018-01-01T10:57:42.178Z,85.17
2018-01-01T10:58:42.175Z,85.55
2018-01-01T10:59:42.188Z,85.64
2018-01-01T11:00:42.171Z,85.93
2018-01-01T11:01:42.173Z,85.07
2018-01-01T11:02:42.178Z,84.64
2018-01-01T11:03:42.172Z,83.97
2018-01-01T11:04:42.177Z,82.93
2018-01-01T11:05:42.166Z,81.32
2018-01-01T11:06:42.165Z,80.37
2018-01-01T11:07:42.160Z,80.79
2018-01-01T11:08:42.202Z,79.90
2018-01-01T11:09:42.161Z,80.46
2018-01-01T11:10:42.161Z,80.27
2018-01-01T11:11:42.153Z,80.84
2018-01-01T11:12:42.151Z,81.23
2018-01-01T11:13:42.149Z,82.74
2018-01-01T11:14:42.146Z,82.84
2018-01-01T11:15:42.154Z,82.79
2018-01-01T11:16:42.140Z,83.12
2018-01-01T11:17:42.140Z,83.55
2018-01-01T11:18:42.148Z,83.27
2018-01-01T11:19:42.132Z,83.65
2018-01-01T11:20:42.133Z,84.12
2018-01-01T11:21:42.129Z,84.59
2018-01-01T11:22:42.125Z,84.69
2018-01-01T11:23:42.123Z,85.17
2018-01-01T11:24:42.119Z,84.98
2018-01-01T11:25:42.131Z,85.26
2018-01-01T11:26:42.122Z,85.93
2018-01-01T11:27:42.110Z,86.21
2018-01-01T11:28:42.107Z,86.40
2018-01-01T11:29:42.104Z,87.06
2018-01-01T11:30:42.102Z,87.35
2018-01-01T11:31:42.098Z,87.92
2018-01-01T11:32:42.096Z,88.10
2018-01-01T11:33:42.095Z,88.29
2018-01-01T11:34:42.088Z,88.29
2018-01-01T11:35:42.096Z,87.82
2018-01-01T11:36:42.081Z,87.63
2018-01-01T11:37:42.081Z,87.92
2018-01-01T11:38:42.075Z,88.20
2018-01-01T11:39:42.075Z,88.68
2018-01-01T11:40:42.071Z,88.96
2018-01-01T11:41:42.065Z,89.25
2018-01-01T11:42:42.058Z,89.34
2018-01-01T11:43:42.058Z,88.77
2018-01-01T11:44:42.054Z,88.58
2018-01-01T11:45:42.049Z,88.39
2018-01-01T11:46:42.057Z,88.77
2018-01-01T11:47:42.045Z,88.87
2018-01-01T11:48:42.040Z,88.10
2018-01-01T11:49:42.042Z,87.25
2018-01-01T11:50:42.033Z,87.63
2018-01-01T11:51:42.029Z,86.97
2018-01-01T11:52:42.025Z,87.06
2018-01-01T11:53:42.031Z,87.63
2018-01-01T11:54:42.015Z,87.63
2018-01-01T11:55:42.026Z,87.82
2018-01-01T11:56:42.020Z,86.40
2018-01-01T11:57:42.016Z,85.64
2018-01-01T11:58:42.004Z,85.55
2018-01-01T11:59:41.999Z,85.83
2018-01-01T12:00:41.994Z,85.74
2018-01-01T12:01:41.993Z,85.74
2018-01-01T12:02:42.011Z,85.64
2018-01-01T12:03:41.988Z,85.78
2018-01-01T12:04:41.985Z,85.68
2018-01-01T12:05:41.979Z,85.59
2018-01-01T12:06:41.977Z,85.59
2018-01-01T12:07:41.973Z,85.02
2018-01-01T12:08:41.978Z,85.21
2018-01-01T12:09:41.964Z,82.93
2018-01-01T12:10:41.961Z,82.84
2018-01-01T12:11:41.962Z,82.84
2018-01-01T12:12:41.955Z,82.74
2018-01-01T12:13:41.962Z,83.03
2018-01-01T12:14:41.946Z,83.46
2018-01-01T12:15:41.951Z,82.74
2018-01-01T12:16:41.944Z,82.84
2018-01-01T12:17:41.946Z,83.12
2018-01-01T12:18:41.933Z,83.12
2018-01-01T12:19:41.930Z,83.40
2018-01-01T12:20:41.927Z,83.97
2018-01-01T12:21:41.923Z,83.50
2018-01-01T12:22:41.924Z,83.22
2018-01-01T12:23:41.924Z,83.74
2018-01-01T12:24:41.911Z,84.83
2018-01-01T12:25:41.909Z,84.92
2018-01-01T12:26:41.915Z,85.74
2018-01-01T12:27:41.903Z,85.55
2018-01-01T12:28:41.899Z,86.68
2018-01-01T12:29:41.894Z,87.45
2018-01-01T12:30:41.899Z,87.54
2018-01-01T12:31:41.889Z,88.01
2018-01-01T12:32:41.886Z,88.77
2018-01-01T12:33:41.880Z,89.15
2018-01-01T12:34:41.879Z,90.10
2018-01-01T12:35:41.889Z,90.00
2018-01-01T12:36:41.870Z,90.57
2018-01-01T12:37:41.876Z,89.81
2018-01-01T12:38:41.866Z,90.00
2018-01-01T12:39:41.859Z,90.38
2018-01-01T12:40:41.865Z,91.05
2018-01-01T12:41:41.874Z,91.05
2018-01-01T12:42:41.848Z,90.67
2018-01-01T12:43:41.853Z,90.67
2018-01-01T12:44:41.850Z,90.76
2018-01-01T12:45:41.845Z,90.95
2018-01-01T12:46:41.833Z,91.05
2018-01-01T12:47:41.843Z,90.48
2018-01-01T12:48:41.836Z,90.29
2018-01-01T12:49:41.831Z,90.76
2018-01-01T12:50:41.826Z,90.67
2018-01-01T12:51:41.825Z,90.86
2018-01-01T12:52:41.823Z,90.67